sensor_id;sensor_type;location;lat;lon;timestamp;pressure;altitude;pressure_sealevel;temperature;humidity
6349;BME280;3207;42.648;23.406;2023-05-20T00:26:16;100247.16;;;16.70;nan
6349;BME280;3207;42.648;23.406;2023-05-20T01:44:55;100235.59;;;16.15;nan
6349;BME280;3207;42.648;23.406;2023-05-20T01:52:18;100242.81;;;16.13;nan
6349;BME280;3207;42.648;23.406;2023-05-20T02:19:26;100223.69;;;15.72;nan
6349;BME280;3207;42.648;23.406;2023-05-20T05:28:18;100198.81;;;18.29;nan
6349;BME280;3207;42.648;23.406;2023-05-20T06:44:11;100260.38;;;19.17;nan
6349;BME280;3207;42.648;23.406;2023-05-20T07:15:59;100255.16;;;20.63;nan
6349;BME280;3207;42.648;23.406;2023-05-20T07:20:54;100246.00;;;20.74;nan
6349;BME280;3207;42.648;23.406;2023-05-20T08:36:55;100129.25;;;24.24;nan
6349;BME280;3207;42.648;23.406;2023-05-20T09:36:09;100125.16;;;24.28;nan
6349;BME280;3207;42.648;23.406;2023-05-20T09:43:41;100122.44;;;24.62;nan
6349;BME280;3207;42.648;23.406;2023-05-20T09:46:09;100129.88;;;24.67;nan
6349;BME280;3207;42.648;23.406;2023-05-20T09:48:36;100119.31;;;25.00;nan
6349;BME280;3207;42.648;23.406;2023-05-20T09:51:04;100122.44;;;25.36;nan
6349;BME280;3207;42.648;23.406;2023-05-20T09:53:31;100120.03;;;25.74;nan
6349;BME280;3207;42.648;23.406;2023-05-20T09:55:58;100123.50;;;25.81;nan
6349;BME280;3207;42.648;23.406;2023-05-20T09:58:36;100105.81;;;25.74;nan
6349;BME280;3207;42.648;23.406;2023-05-20T10:01:05;100122.44;;;26.02;nan
6349;BME280;3207;42.648;23.406;2023-05-20T10:06:54;100121.78;;;26.20;nan
6349;BME280;3207;42.648;23.406;2023-05-20T10:09:44;100113.53;;;26.35;nan
6349;BME280;3207;42.648;23.406;2023-05-20T10:12:23;100136.56;;;26.49;nan
6349;BME280;3207;42.648;23.406;2023-05-20T10:15:12;100132.09;;;26.30;nan
6349;BME280;3207;42.648;23.406;2023-05-20T10:17:47;100131.69;;;26.19;nan
6349;BME280;3207;42.648;23.406;2023-05-20T10:20:18;100129.25;;;26.05;nan
6349;BME280;3207;42.648;23.406;2023-05-20T10:22:54;100127.59;;;25.97;nan
6349;BME280;3207;42.648;23.406;2023-05-20T10:25:24;100131.28;;;26.09;nan
6349;BME280;3207;42.648;23.406;2023-05-20T10:27:51;100123.06;;;26.04;nan
6349;BME280;3207;42.648;23.406;2023-05-20T10:30:30;100122.41;;;26.22;nan
6349;BME280;3207;42.648;23.406;2023-05-20T10:33:02;100144.06;;;26.20;nan
6349;BME280;3207;42.648;23.406;2023-05-20T10:35:46;100118.91;;;26.08;nan
6349;BME280;3207;42.648;23.406;2023-05-20T10:38:13;100152.75;;;25.76;nan
6349;BME280;3207;42.648;23.406;2023-05-20T10:40:40;100128.66;;;25.83;nan
6349;BME280;3207;42.648;23.406;2023-05-20T10:43:11;100117.72;;;25.58;nan
6349;BME280;3207;42.648;23.406;2023-05-20T10:50:54;100118.97;;;25.69;nan
6349;BME280;3207;42.648;23.406;2023-05-20T10:55:51;100119.59;;;25.64;nan
6349;BME280;3207;42.648;23.406;2023-05-20T10:58:20;100116.50;;;25.87;nan
6349;BME280;3207;42.648;23.406;2023-05-20T11:00:51;100119.59;;;25.77;nan
6349;BME280;3207;42.648;23.406;2023-05-20T11:03:20;100111.56;;;25.64;nan
6349;BME280;3207;42.648;23.406;2023-05-20T11:05:48;100107.03;;;25.71;nan
6349;BME280;3207;42.648;23.406;2023-05-20T11:08:15;100093.00;;;25.76;nan
6349;BME280;3207;42.648;23.406;2023-05-20T11:10:42;100096.47;;;25.96;nan
6349;BME280;3207;42.648;23.406;2023-05-20T11:15:38;100089.44;;;26.08;nan
6349;BME280;3207;42.648;23.406;2023-05-20T11:18:06;100078.13;;;26.00;nan
6349;BME280;3207;42.648;23.406;2023-05-20T11:20:33;100080.25;;;25.84;nan
6349;BME280;3207;42.648;23.406;2023-05-20T11:23:12;100057.06;;;26.16;nan
6349;BME280;3207;42.648;23.406;2023-05-20T11:25:42;100078.41;;;26.49;nan
6349;BME280;3207;42.648;23.406;2023-05-20T11:28:11;100069.66;;;26.67;nan
6349;BME280;3207;42.648;23.406;2023-05-20T11:30:40;100079.47;;;26.86;nan
6349;BME280;3207;42.648;23.406;2023-05-20T11:33:11;100065.63;;;26.89;nan
6349;BME280;3207;42.648;23.406;2023-05-20T11:35:43;100071.56;;;26.91;nan
6349;BME280;3207;42.648;23.406;2023-05-20T11:38:11;100078.59;;;26.92;nan
6349;BME280;3207;42.648;23.406;2023-05-20T11:40:42;100063.72;;;26.96;nan
6349;BME280;3207;42.648;23.406;2023-05-20T11:43:10;100063.66;;;27.10;nan
6349;BME280;3207;42.648;23.406;2023-05-20T11:45:38;100070.88;;;27.09;nan
6349;BME280;3207;42.648;23.406;2023-05-20T11:48:06;100071.56;;;26.98;nan
6349;BME280;3207;42.648;23.406;2023-05-20T11:53:26;100044.47;;;27.31;nan
6349;BME280;3207;42.648;23.406;2023-05-20T11:55:55;100038.53;;;27.47;nan
6349;BME280;3207;42.648;23.406;2023-05-20T12:01:00;100039.59;;;27.46;nan
6349;BME280;3207;42.648;23.406;2023-05-20T12:03:27;100040.63;;;27.45;nan
6349;BME280;3207;42.648;23.406;2023-05-20T12:05:55;100049.28;;;27.47;nan
6349;BME280;3207;42.648;23.406;2023-05-20T12:08:22;100041.50;;;27.39;nan
6349;BME280;3207;42.648;23.406;2023-05-20T12:10:49;100042.78;;;27.12;nan
6349;BME280;3207;42.648;23.406;2023-05-20T12:13:16;100042.13;;;27.16;nan
6349;BME280;3207;42.648;23.406;2023-05-20T12:15:43;100047.41;;;27.23;nan
6349;BME280;3207;42.648;23.406;2023-05-20T12:18:10;100034.16;;;27.28;nan
6349;BME280;3207;42.648;23.406;2023-05-20T12:20:38;100043.97;;;27.41;nan
6349;BME280;3207;42.648;23.406;2023-05-20T12:23:06;100030.88;;;27.26;nan
6349;BME280;3207;42.648;23.406;2023-05-20T12:25:33;100030.78;;;27.39;nan
6349;BME280;3207;42.648;23.406;2023-05-20T12:28:01;100051.53;;;27.50;nan
6349;BME280;3207;42.648;23.406;2023-05-20T12:30:28;100031.09;;;27.49;nan
6349;BME280;3207;42.648;23.406;2023-05-20T12:32:55;100024.25;;;27.53;nan
6349;BME280;3207;42.648;23.406;2023-05-20T12:35:23;100013.84;;;27.63;nan
6349;BME280;3207;42.648;23.406;2023-05-20T12:37:50;100015.50;;;27.64;nan
6349;BME280;3207;42.648;23.406;2023-05-20T12:40:19;100000.84;;;27.79;nan
6349;BME280;3207;42.648;23.406;2023-05-20T12:42:46;100006.38;;;27.84;nan
6349;BME280;3207;42.648;23.406;2023-05-20T12:45:13;100000.25;;;27.77;nan
6349;BME280;3207;42.648;23.406;2023-05-20T12:47:40;99996.97;;;27.75;nan
6349;BME280;3207;42.648;23.406;2023-05-20T12:50:07;99994.00;;;27.83;nan
6349;BME280;3207;42.648;23.406;2023-05-20T12:52:34;100002.94;;;27.77;nan
6349;BME280;3207;42.648;23.406;2023-05-20T12:55:04;99991.91;;;27.85;nan
6349;BME280;3207;42.648;23.406;2023-05-20T12:57:39;100001.22;;;27.64;nan
6349;BME280;3207;42.648;23.406;2023-05-20T13:00:07;99995.13;;;27.50;nan
6349;BME280;3207;42.648;23.406;2023-05-20T13:02:34;99989.19;;;27.66;nan
6349;BME280;3207;42.648;23.406;2023-05-20T13:05:01;99997.34;;;27.78;nan
6349;BME280;3207;42.648;23.406;2023-05-20T13:07:28;99989.66;;;27.63;nan
6349;BME280;3207;42.648;23.406;2023-05-20T13:09:56;99983.09;;;27.59;nan
6349;BME280;3207;42.648;23.406;2023-05-20T13:12:23;99975.19;;;27.64;nan
6349;BME280;3207;42.648;23.406;2023-05-20T13:15:01;99985.03;;;27.46;nan
6349;BME280;3207;42.648;23.406;2023-05-20T13:17:28;99974.84;;;27.54;nan
6349;BME280;3207;42.648;23.406;2023-05-20T13:19:56;99967.41;;;27.56;nan
6349;BME280;3207;42.648;23.406;2023-05-20T13:22:22;99970.34;;;27.48;nan
6349;BME280;3207;42.648;23.406;2023-05-20T13:24:49;99969.56;;;27.23;nan
6349;BME280;3207;42.648;23.406;2023-05-20T13:27:16;99964.75;;;27.31;nan
6349;BME280;3207;42.648;23.406;2023-05-20T13:29:43;99962.50;;;27.28;nan
6349;BME280;3207;42.648;23.406;2023-05-20T13:32:12;99956.03;;;27.36;nan
6349;BME280;3207;42.648;23.406;2023-05-20T13:34:38;99959.31;;;27.38;nan
6349;BME280;3207;42.648;23.406;2023-05-20T13:37:05;99951.97;;;27.27;nan
6349;BME280;3207;42.648;23.406;2023-05-20T13:39:32;99947.34;;;27.16;nan
6349;BME280;3207;42.648;23.406;2023-05-20T13:41:59;99949.69;;;27.06;nan
6349;BME280;3207;42.648;23.406;2023-05-20T13:44:26;99942.31;;;27.01;nan
6349;BME280;3207;42.648;23.406;2023-05-20T13:46:53;99931.50;;;26.83;nan
6349;BME280;3207;42.648;23.406;2023-05-20T13:49:21;99929.78;;;26.95;nan
6349;BME280;3207;42.648;23.406;2023-05-20T13:51:49;99947.72;;;26.94;nan
6349;BME280;3207;42.648;23.406;2023-05-20T13:54:16;99934.53;;;26.93;nan
6349;BME280;3207;42.648;23.406;2023-05-20T13:56:43;99927.53;;;26.92;nan
6349;BME280;3207;42.648;23.406;2023-05-20T13:59:10;99922.13;;;26.99;nan
6349;BME280;3207;42.648;23.406;2023-05-20T14:01:37;99926.88;;;26.96;nan
6349;BME280;3207;42.648;23.406;2023-05-20T14:04:09;99922.28;;;26.72;nan
6349;BME280;3207;42.648;23.406;2023-05-20T14:06:37;99922.84;;;26.81;nan
6349;BME280;3207;42.648;23.406;2023-05-20T14:11:32;99916.50;;;26.75;nan
6349;BME280;3207;42.648;23.406;2023-05-20T14:13:59;99917.31;;;26.76;nan
6349;BME280;3207;42.648;23.406;2023-05-20T14:16:25;99918.78;;;26.72;nan
6349;BME280;3207;42.648;23.406;2023-05-20T14:18:52;99910.13;;;26.45;nan
6349;BME280;3207;42.648;23.406;2023-05-20T14:23:47;99912.59;;;26.46;nan
6349;BME280;3207;42.648;23.406;2023-05-20T14:26:17;99905.19;;;26.42;nan
6349;BME280;3207;42.648;23.406;2023-05-20T14:28:44;99900.25;;;26.39;nan
6349;BME280;3207;42.648;23.406;2023-05-20T14:31:10;99905.81;;;26.44;nan
6349;BME280;3207;42.648;23.406;2023-05-20T14:33:37;99935.69;;;26.47;nan
6349;BME280;3207;42.648;23.406;2023-05-20T14:36:04;99919.94;;;26.57;nan
6349;BME280;3207;42.648;23.406;2023-05-20T14:38:31;99909.59;;;26.61;nan
6349;BME280;3207;42.648;23.406;2023-05-20T14:40:59;99903.03;;;26.57;nan
6349;BME280;3207;42.648;23.406;2023-05-20T14:43:26;99900.41;;;26.75;nan
6349;BME280;3207;42.648;23.406;2023-05-20T14:45:53;99900.06;;;26.65;nan
6349;BME280;3207;42.648;23.406;2023-05-20T14:48:23;99873.78;;;26.49;nan
6349;BME280;3207;42.648;23.406;2023-05-20T14:50:49;99888.13;;;26.61;nan
6349;BME280;3207;42.648;23.406;2023-05-20T14:53:16;99901.28;;;26.69;nan
6349;BME280;3207;42.648;23.406;2023-05-20T14:55:43;99880.97;;;26.80;nan
6349;BME280;3207;42.648;23.406;2023-05-20T14:58:20;99887.63;;;26.71;nan
6349;BME280;3207;42.648;23.406;2023-05-20T15:00:47;99884.81;;;26.66;nan
6349;BME280;3207;42.648;23.406;2023-05-20T15:03:14;99874.91;;;26.66;nan
6349;BME280;3207;42.648;23.406;2023-05-20T15:05:41;99883.59;;;26.61;nan
6349;BME280;3207;42.648;23.406;2023-05-20T15:08:08;99880.34;;;26.53;nan
6349;BME280;3207;42.648;23.406;2023-05-20T15:10:35;99880.84;;;26.43;nan
6349;BME280;3207;42.648;23.406;2023-05-20T15:13:01;99881.75;;;26.31;nan
6349;BME280;3207;42.648;23.406;2023-05-20T15:15:30;99878.06;;;26.25;nan
6349;BME280;3207;42.648;23.406;2023-05-20T15:17:56;99876.03;;;26.27;nan
6349;BME280;3207;42.648;23.406;2023-05-20T15:20:23;99903.69;;;26.14;nan
6349;BME280;3207;42.648;23.406;2023-05-20T15:22:50;99887.63;;;26.14;nan
6349;BME280;3207;42.648;23.406;2023-05-20T15:27:43;99879.78;;;26.13;nan
6349;BME280;3207;42.648;23.406;2023-05-20T15:30:11;99883.34;;;26.00;nan
6349;BME280;3207;42.648;23.406;2023-05-20T15:32:40;99868.75;;;25.96;nan
6349;BME280;3207;42.648;23.406;2023-05-20T15:37:34;99866.50;;;25.93;nan
6349;BME280;3207;42.648;23.406;2023-05-20T15:42:27;99876.88;;;25.76;nan
6349;BME280;3207;42.648;23.406;2023-05-20T15:49:49;99866.03;;;25.58;nan
6349;BME280;3207;42.648;23.406;2023-05-20T15:52:16;99864.00;;;25.60;nan
6349;BME280;3207;42.648;23.406;2023-05-20T15:54:42;99859.47;;;25.61;nan
6349;BME280;3207;42.648;23.406;2023-05-20T15:57:09;99860.69;;;25.51;nan
6349;BME280;3207;42.648;23.406;2023-05-20T15:59:36;99854.50;;;25.58;nan
6349;BME280;3207;42.648;23.406;2023-05-20T16:02:03;99848.34;;;25.44;nan
6349;BME280;3207;42.648;23.406;2023-05-20T16:04:30;99840.00;;;25.14;nan
6349;BME280;3207;42.648;23.406;2023-05-20T16:09:25;99849.47;;;25.23;nan
6349;BME280;3207;42.648;23.406;2023-05-20T16:11:52;99860.38;;;25.22;nan
6349;BME280;3207;42.648;23.406;2023-05-20T16:14:20;99852.56;;;25.20;nan
6349;BME280;3207;42.648;23.406;2023-05-20T16:16:47;99846.38;;;25.26;nan
6349;BME280;3207;42.648;23.406;2023-05-20T16:21:40;99845.56;;;25.12;nan
6349;BME280;3207;42.648;23.406;2023-05-20T16:24:09;99844.34;;;25.15;nan
6349;BME280;3207;42.648;23.406;2023-05-20T16:29:02;99839.00;;;25.02;nan
6349;BME280;3207;42.648;23.406;2023-05-20T16:33:55;99834.31;;;24.97;nan
6349;BME280;3207;42.648;23.406;2023-05-20T16:36:22;99843.56;;;24.88;nan
6349;BME280;3207;42.648;23.406;2023-05-20T16:38:49;99839.03;;;24.95;nan
6349;BME280;3207;42.648;23.406;2023-05-20T16:43:47;99835.31;;;24.83;nan
6349;BME280;3207;42.648;23.406;2023-05-20T16:46:14;99845.63;;;24.73;nan
6349;BME280;3207;42.648;23.406;2023-05-20T16:48:41;99837.78;;;24.71;nan
6349;BME280;3207;42.648;23.406;2023-05-20T16:51:08;99864.97;;;24.75;nan
6349;BME280;3207;42.648;23.406;2023-05-20T16:53:35;99843.56;;;24.62;nan
6349;BME280;3207;42.648;23.406;2023-05-20T16:56:04;99828.78;;;24.46;nan
6349;BME280;3207;42.648;23.406;2023-05-20T16:58:32;99838.22;;;24.42;nan
6349;BME280;3207;42.648;23.406;2023-05-20T17:00:59;99825.28;;;24.32;nan
6349;BME280;3207;42.648;23.406;2023-05-20T17:03:26;99839.47;;;24.46;nan
6349;BME280;3207;42.648;23.406;2023-05-20T17:05:53;99848.28;;;24.40;nan
6349;BME280;3207;42.648;23.406;2023-05-20T17:08:20;99835.78;;;24.47;nan
6349;BME280;3207;42.648;23.406;2023-05-20T17:10:47;99842.75;;;24.48;nan
6349;BME280;3207;42.648;23.406;2023-05-20T17:15:42;99846.47;;;24.47;nan
6349;BME280;3207;42.648;23.406;2023-05-20T17:18:09;99853.00;;;24.38;nan
6349;BME280;3207;42.648;23.406;2023-05-20T17:20:36;99845.63;;;24.33;nan
6349;BME280;3207;42.648;23.406;2023-05-20T17:23:03;99855.50;;;24.33;nan
6349;BME280;3207;42.648;23.406;2023-05-20T17:27:56;99850.34;;;24.31;nan
6349;BME280;3207;42.648;23.406;2023-05-20T17:30:23;99853.41;;;24.28;nan
6349;BME280;3207;42.648;23.406;2023-05-20T17:32:52;99857.47;;;24.04;nan
6349;BME280;3207;42.648;23.406;2023-05-20T17:35:20;99873.91;;;24.08;nan
6349;BME280;3207;42.648;23.406;2023-05-20T17:37:50;99855.63;;;24.12;nan
6349;BME280;3207;42.648;23.406;2023-05-20T17:40:17;99894.00;;;23.97;nan
6349;BME280;3207;42.648;23.406;2023-05-20T17:42:44;99867.34;;;24.04;nan
6349;BME280;3207;42.648;23.406;2023-05-20T17:45:12;99878.81;;;23.98;nan
6349;BME280;3207;42.648;23.406;2023-05-20T17:47:39;99873.47;;;23.91;nan
6349;BME280;3207;42.648;23.406;2023-05-20T17:50:08;99901.81;;;23.92;nan
6349;BME280;3207;42.648;23.406;2023-05-20T17:55:02;99860.50;;;23.82;nan
6349;BME280;3207;42.648;23.406;2023-05-20T17:57:31;99868.31;;;23.83;nan
6349;BME280;3207;42.648;23.406;2023-05-20T17:59:58;99877.09;;;23.77;nan
6349;BME280;3207;42.648;23.406;2023-05-20T18:02:24;99873.81;;;23.75;nan
6349;BME280;3207;42.648;23.406;2023-05-20T18:04:51;99869.28;;;23.69;nan
6349;BME280;3207;42.648;23.406;2023-05-20T18:07:20;99872.16;;;23.67;nan
6349;BME280;3207;42.648;23.406;2023-05-20T18:09:46;99875.44;;;23.69;nan
6349;BME280;3207;42.648;23.406;2023-05-20T18:19:33;99869.59;;;23.53;nan
6349;BME280;3207;42.648;23.406;2023-05-20T18:24:28;99898.72;;;23.48;nan
6349;BME280;3207;42.648;23.406;2023-05-20T19:08:38;99881.09;;;22.84;nan
6349;BME280;3207;42.648;23.406;2023-05-20T20:52:41;99884.09;;;22.53;nan
6349;BME280;3207;42.648;23.406;2023-05-20T21:05:07;99886.16;;;22.58;nan
6349;BME280;3207;42.648;23.406;2023-05-20T21:56:46;99802.94;;;22.07;nan
6349;BME280;3207;42.648;23.406;2023-05-20T22:13:56;99870.50;;;22.27;nan
6349;BME280;3207;42.648;23.406;2023-05-20T22:33:32;99821.50;;;22.00;nan
6349;BME280;3207;42.648;23.406;2023-05-20T22:53:09;99871.84;;;21.80;nan
6349;BME280;3207;42.648;23.406;2023-05-20T23:07:50;99879.66;;;21.52;nan
